createdAt,value
2018-08-25T00:00:44.819Z,19.20
2018-08-25T00:03:14.046Z,19.20
2018-08-25T00:05:43.221Z,18.93
2018-08-25T00:08:12.505Z,18.90
2018-08-25T00:10:41.734Z,20.50
2018-08-25T00:13:11.440Z,20.40
2018-08-25T00:15:40.643Z,20.90
2018-08-25T00:18:10.708Z,22.50
2018-08-25T00:20:40.206Z,19.13
2018-08-25T00:23:09.590Z,19.63
2018-08-25T00:25:38.856Z,19.63
2018-08-25T00:28:08.073Z,20.07
2018-08-25T00:30:42.539Z,19.93
2018-08-25T00:33:11.710Z,21.37
2018-08-25T00:35:40.963Z,21.87
2018-08-25T00:38:10.235Z,21.27
2018-08-25T00:40:39.449Z,23.73
2018-08-25T00:43:08.878Z,23.33
2018-08-25T00:45:38.223Z,22.17
2018-08-25T00:48:07.611Z,23.60
2018-08-25T00:50:36.940Z,22.30
2018-08-25T00:53:06.609Z,22.13
2018-08-25T00:55:36.012Z,21.57
2018-08-25T00:58:05.432Z,22.03
2018-08-25T01:00:34.905Z,24.27
2018-08-25T01:03:04.247Z,23.50
2018-08-25T01:05:33.431Z,23.07
2018-08-25T01:08:02.760Z,21.80
2018-08-25T01:10:31.997Z,22.10
2018-08-25T01:13:01.289Z,24.10
2018-08-25T01:15:30.561Z,22.10
2018-08-25T01:17:59.965Z,23.37
2018-08-25T01:20:29.202Z,21.60
2018-08-25T01:22:58.474Z,24.37
2018-08-25T01:25:27.698Z,23.47
2018-08-25T01:27:56.999Z,21.55
2018-08-25T01:30:26.443Z,22.20
2018-08-25T01:32:55.627Z,21.80
2018-08-25T01:35:24.776Z,22.45
2018-08-25T01:37:54.331Z,23.67
2018-08-25T01:40:23.555Z,22.27
2018-08-25T01:42:52.763Z,22.93
2018-08-25T01:45:22.131Z,22.87
2018-08-25T01:47:52.083Z,23.00
2018-08-25T01:50:21.277Z,23.17
2018-08-25T01:52:50.451Z,24.20
2018-08-25T01:55:19.690Z,23.40
2018-08-25T01:57:48.875Z,23.50
2018-08-25T02:00:18.274Z,24.20
2018-08-25T02:02:47.594Z,23.87
2018-08-25T02:05:16.685Z,23.92
2018-08-25T02:07:45.927Z,25.40
2018-08-25T02:10:15.092Z,24.80
2018-08-25T02:12:44.286Z,26.67
2018-08-25T02:15:13.471Z,26.83
2018-08-25T02:17:42.677Z,24.20
2018-08-25T02:20:11.837Z,24.47
2018-08-25T02:22:41.009Z,24.90
2018-08-25T02:25:11.110Z,22.73
2018-08-25T02:27:40.263Z,22.50
2018-08-25T02:30:09.479Z,24.65
2018-08-25T02:32:38.825Z,22.80
2018-08-25T02:35:08.262Z,21.47
2018-08-25T02:37:37.468Z,23.77
2018-08-25T02:40:06.862Z,21.30
2018-08-25T02:42:36.118Z,22.13
2018-08-25T02:45:05.541Z,23.03
2018-08-25T02:47:35.258Z,24.05
2018-08-25T02:50:04.603Z,23.97
2018-08-25T02:52:33.809Z,23.90
2018-08-25T02:55:03.015Z,24.00
2018-08-25T02:57:32.173Z,24.13
2018-08-25T03:00:01.795Z,23.40
2018-08-25T03:02:31.609Z,25.13
2018-08-25T03:05:00.820Z,23.30
2018-08-25T03:07:29.989Z,25.03
2018-08-25T03:09:59.276Z,25.13
2018-08-25T03:12:28.545Z,23.77
2018-08-25T03:14:57.728Z,24.20
2018-08-25T03:17:26.889Z,23.30
2018-08-25T03:19:56.139Z,25.80
2018-08-25T03:22:25.378Z,22.83
2018-08-25T03:24:54.580Z,22.97
2018-08-25T03:27:23.765Z,21.68
2018-08-25T03:29:52.991Z,23.83
2018-08-25T03:32:22.234Z,22.87
2018-08-25T03:34:51.387Z,21.70
2018-08-25T03:37:20.580Z,22.58
2018-08-25T03:39:49.765Z,21.40
2018-08-25T03:42:18.965Z,21.60
2018-08-25T03:44:48.247Z,21.53
2018-08-25T03:47:17.421Z,21.93
2018-08-25T03:49:46.624Z,22.13
2018-08-25T03:52:15.847Z,21.20
2018-08-25T03:54:45.023Z,21.70
2018-08-25T03:57:14.207Z,20.93
2018-08-25T03:59:43.537Z,18.97
2018-08-25T04:02:12.736Z,21.00
2018-08-25T04:04:41.936Z,20.63
2018-08-25T04:07:11.318Z,21.50
2018-08-25T04:09:40.897Z,23.77
2018-08-25T04:12:10.081Z,22.00
2018-08-25T04:14:39.318Z,23.60
2018-08-25T04:17:08.626Z,23.17
2018-08-25T04:19:37.957Z,22.20
2018-08-25T04:22:07.220Z,24.80
2018-08-25T04:24:36.307Z,22.90
2018-08-25T04:27:05.816Z,24.30
2018-08-25T04:29:34.985Z,24.10
2018-08-25T04:32:04.181Z,25.20
2018-08-25T04:34:33.325Z,24.27
2018-08-25T04:37:02.520Z,24.20
2018-08-25T04:39:31.690Z,24.07
2018-08-25T04:42:00.810Z,23.87
2018-08-25T04:44:29.951Z,25.20
2018-08-25T04:46:59.093Z,25.00
2018-08-25T04:49:28.289Z,24.00
2018-08-25T04:51:57.536Z,23.40
2018-08-25T04:54:26.700Z,22.67
2018-08-25T04:56:55.875Z,23.37
2018-08-25T04:59:25.037Z,25.17
2018-08-25T05:01:54.334Z,25.07
2018-08-25T05:04:23.376Z,23.23
2018-08-25T05:06:52.666Z,23.30
2018-08-25T05:09:21.916Z,23.73
2018-08-25T05:11:51.065Z,22.62
2018-08-25T05:14:23.678Z,20.63
2018-08-25T05:16:52.866Z,21.93
2018-08-25T05:19:22.082Z,21.40
2018-08-25T05:21:51.298Z,22.70
2018-08-25T05:24:20.439Z,22.00
2018-08-25T05:26:49.745Z,22.20
2018-08-25T05:29:18.946Z,21.27
2018-08-25T05:31:48.382Z,21.13
2018-08-25T05:34:17.561Z,19.47
2018-08-25T05:36:46.767Z,19.20
2018-08-25T05:39:15.912Z,19.27
2018-08-25T05:41:45.432Z,18.70
2018-08-25T05:44:14.730Z,18.93
2018-08-25T05:46:43.819Z,19.03
2018-08-25T05:49:12.978Z,19.60
2018-08-25T05:51:42.158Z,18.17
2018-08-25T05:54:11.462Z,17.80
2018-08-25T05:56:40.661Z,19.80
2018-08-25T05:59:09.985Z,18.67
2018-08-25T06:01:39.174Z,17.87
2018-08-25T06:04:08.442Z,18.40
2018-08-25T06:06:37.877Z,20.10
2018-08-25T06:09:10.156Z,18.30
2018-08-25T06:11:39.854Z,17.87
2018-08-25T06:14:09.038Z,19.10
2018-08-25T06:16:38.225Z,19.03
2018-08-25T06:19:07.897Z,18.30
2018-08-25T06:21:37.069Z,19.02
2018-08-25T06:24:06.339Z,20.50
2018-08-25T06:26:35.516Z,17.40
2018-08-25T06:29:04.785Z,18.40
2018-08-25T06:31:34.329Z,18.00
2018-08-25T06:34:03.774Z,17.67
2018-08-25T06:36:32.947Z,17.73
2018-08-25T06:39:02.128Z,17.80
2018-08-25T06:41:31.362Z,17.83
2018-08-25T06:44:00.507Z,17.40
2018-08-25T06:46:29.750Z,16.70
2018-08-25T06:48:58.975Z,17.47
2018-08-25T06:51:28.142Z,18.17
2018-08-25T06:53:57.326Z,16.53
2018-08-25T06:56:26.561Z,15.88
2018-08-25T06:58:55.781Z,16.33
2018-08-25T07:01:24.959Z,16.27
2018-08-25T07:03:54.417Z,16.83
2018-08-25T07:06:23.809Z,17.23
2018-08-25T07:08:53.530Z,17.23
2018-08-25T07:11:22.717Z,16.55
2018-08-25T07:13:51.853Z,16.10
2018-08-25T07:16:22.156Z,16.27
2018-08-25T07:18:51.527Z,15.90
2018-08-25T07:21:21.969Z,17.85
2018-08-25T07:23:51.538Z,15.20
2018-08-25T07:26:20.707Z,16.50
2018-08-25T07:28:49.882Z,15.70
2018-08-25T07:31:19.127Z,17.02
2018-08-25T07:33:48.937Z,16.53
2018-08-25T07:36:18.149Z,16.10
2018-08-25T07:38:47.385Z,14.70
2018-08-25T07:41:16.519Z,15.85
2018-08-25T07:43:45.633Z,14.93
2018-08-25T07:46:14.819Z,16.10
2018-08-25T07:48:44.518Z,15.23
2018-08-25T07:51:13.590Z,17.67
2018-08-25T07:53:42.850Z,15.68
2018-08-25T07:56:12.066Z,15.60
2018-08-25T07:58:41.209Z,15.57
2018-08-25T08:01:10.497Z,17.30
2018-08-25T08:03:39.739Z,14.73
2018-08-25T08:06:08.971Z,15.53
2018-08-25T08:08:38.172Z,14.87
2018-08-25T08:11:07.631Z,16.23
2018-08-25T08:13:36.798Z,16.80
2018-08-25T08:16:06.490Z,16.30
2018-08-25T08:18:35.848Z,15.67
2018-08-25T08:21:05.244Z,16.20
2018-08-25T08:23:34.570Z,16.17
2018-08-25T08:26:03.851Z,16.63
2018-08-25T08:28:33.134Z,14.90
2018-08-25T08:31:02.323Z,16.70
2018-08-25T08:33:31.577Z,16.40
2018-08-25T08:36:00.807Z,16.30
2018-08-25T08:38:32.533Z,15.87
2018-08-25T08:41:01.846Z,16.37
2018-08-25T08:43:31.034Z,14.97
2018-08-25T08:46:00.297Z,15.60
2018-08-25T08:48:29.607Z,14.27
2018-08-25T08:50:59.344Z,14.77
2018-08-25T08:53:28.616Z,14.37
2018-08-25T08:55:57.800Z,14.07
2018-08-25T08:58:27.159Z,14.70
2018-08-25T09:00:56.518Z,14.23
2018-08-25T09:03:25.727Z,14.53
2018-08-25T09:05:54.894Z,14.30
2018-08-25T09:08:24.080Z,14.20
2018-08-25T09:10:53.264Z,14.83
2018-08-25T09:13:22.553Z,14.50
2018-08-25T09:15:51.807Z,13.87
2018-08-25T09:18:20.962Z,15.00
2018-08-25T09:20:50.163Z,13.20
2018-08-25T09:23:19.474Z,14.78
2018-08-25T09:25:48.766Z,13.62
2018-08-25T09:28:17.993Z,14.53
2018-08-25T09:30:47.181Z,14.77
2018-08-25T09:33:16.372Z,14.05
2018-08-25T09:35:45.597Z,13.97
2018-08-25T09:38:15.145Z,14.00
2018-08-25T09:40:44.333Z,15.67
2018-08-25T09:43:13.500Z,14.03
2018-08-25T09:45:42.892Z,13.73
2018-08-25T09:48:12.061Z,13.83
2018-08-25T09:50:41.267Z,15.17
2018-08-25T09:53:10.495Z,13.40
2018-08-25T09:55:39.731Z,14.37
2018-08-25T09:58:08.996Z,14.97
2018-08-25T10:00:38.244Z,14.60
2018-08-25T10:03:07.810Z,15.30
2018-08-25T10:05:36.998Z,13.70
2018-08-25T10:08:06.278Z,15.50
2018-08-25T10:10:35.571Z,16.73
2018-08-25T10:13:04.774Z,14.97
2018-08-25T10:15:33.965Z,16.63
2018-08-25T10:18:04.159Z,15.30
2018-08-25T10:20:33.866Z,15.27
2018-08-25T10:23:03.102Z,15.13
2018-08-25T10:25:32.585Z,14.17
2018-08-25T10:28:01.783Z,15.43
2018-08-25T10:30:31.030Z,14.13
2018-08-25T10:33:00.338Z,16.13
2018-08-25T10:35:29.512Z,15.47
2018-08-25T10:37:58.756Z,17.30
2018-08-25T10:40:27.933Z,16.12
2018-08-25T10:42:57.180Z,14.70
2018-08-25T10:45:26.392Z,15.23
2018-08-25T10:47:55.843Z,13.57
2018-08-25T10:50:25.553Z,14.87
2018-08-25T10:52:54.723Z,15.70
2018-08-25T10:55:23.941Z,14.47
2018-08-25T10:57:53.153Z,14.27
2018-08-25T11:00:22.463Z,14.50
2018-08-25T11:02:51.581Z,14.97
2018-08-25T11:05:20.785Z,14.65
2018-08-25T11:07:50.021Z,14.50
2018-08-25T11:10:19.308Z,13.93
2018-08-25T11:12:48.586Z,15.40
2018-08-25T11:15:17.835Z,15.23
2018-08-25T11:17:47.255Z,14.43
2018-08-25T11:20:17.214Z,14.03
2018-08-25T11:22:46.397Z,13.97
2018-08-25T11:25:15.562Z,15.45
2018-08-25T11:27:44.813Z,13.83
2018-08-25T11:30:14.295Z,13.47
2018-08-25T11:32:43.559Z,10.63
2018-08-25T11:35:12.738Z,9.10
2018-08-25T11:37:41.977Z,9.50
2018-08-25T11:40:11.748Z,9.90
2018-08-25T11:42:40.933Z,10.10
2018-08-25T11:45:12.690Z,8.50
2018-08-25T11:47:41.912Z,10.13
2018-08-25T11:50:12.087Z,9.67
2018-08-25T11:52:41.629Z,9.80
2018-08-25T11:55:11.622Z,9.77
2018-08-25T11:57:40.836Z,8.90
2018-08-25T12:00:10.570Z,9.90
2018-08-25T12:02:40.269Z,9.77
2018-08-25T12:05:09.533Z,9.63
2018-08-25T12:07:39.798Z,10.00
2018-08-25T12:10:09.265Z,8.97
2018-08-25T12:12:42.964Z,9.13
2018-08-25T12:15:15.344Z,9.43
2018-08-25T12:17:44.774Z,9.03
2018-08-25T12:20:15.422Z,9.90
2018-08-25T12:22:44.669Z,8.90
2018-08-25T12:25:13.862Z,8.80
2018-08-25T12:27:43.595Z,9.50
2018-08-25T12:30:13.067Z,10.27
2018-08-25T12:32:42.325Z,9.95
2018-08-25T12:35:11.814Z,10.23
2018-08-25T12:37:41.028Z,8.77
2018-08-25T12:40:13.773Z,9.30
2018-08-25T12:42:43.437Z,9.23
2018-08-25T12:45:13.330Z,9.73
2018-08-25T12:47:42.428Z,9.17
2018-08-25T12:50:11.871Z,9.13
2018-08-25T12:52:42.490Z,9.30
2018-08-25T12:55:12.227Z,9.20
2018-08-25T12:57:41.861Z,8.40
2018-08-25T13:00:11.829Z,9.37
2018-08-25T13:02:41.031Z,8.93
2018-08-25T13:05:11.062Z,10.03
2018-08-25T13:07:41.532Z,10.93
2018-08-25T13:10:10.817Z,9.40
2018-08-25T13:12:40.627Z,8.80
2018-08-25T13:15:10.746Z,9.80
2018-08-25T13:17:40.490Z,10.73
2018-08-25T13:20:10.617Z,9.27
2018-08-25T13:22:39.961Z,10.32
2018-08-25T13:25:09.190Z,9.20
2018-08-25T13:27:38.708Z,10.40
2018-08-25T13:30:07.970Z,10.33
2018-08-25T13:32:37.199Z,9.37
2018-08-25T13:35:06.784Z,8.60
2018-08-25T13:37:38.032Z,10.13
2018-08-25T13:40:07.658Z,9.17
2018-08-25T13:42:36.883Z,8.90
2018-08-25T13:45:07.750Z,10.20
2018-08-25T13:47:37.071Z,10.40
2018-08-25T13:50:06.811Z,10.03
2018-08-25T13:52:36.157Z,10.10
2018-08-25T13:55:05.600Z,8.53
2018-08-25T13:57:35.026Z,10.23
2018-08-25T14:00:04.293Z,9.80
2018-08-25T14:02:33.505Z,9.07
2018-08-25T14:05:03.812Z,9.10
2018-08-25T14:07:33.299Z,8.20
2018-08-25T14:10:03.344Z,9.27
2018-08-25T14:12:32.548Z,10.17
2018-08-25T14:15:01.814Z,9.60
2018-08-25T14:17:31.816Z,10.40
2018-08-25T14:20:01.280Z,9.20
2018-08-25T14:22:30.480Z,10.90
2018-08-25T14:25:00.385Z,10.37
2018-08-25T14:27:29.697Z,10.50
2018-08-25T14:29:58.907Z,10.57
2018-08-25T14:32:28.197Z,10.13
2018-08-25T14:34:58.567Z,10.13
2018-08-25T14:37:27.805Z,10.48
2018-08-25T14:39:57.915Z,10.73
2018-08-25T14:42:27.953Z,10.20
2018-08-25T14:44:57.230Z,9.87
2018-08-25T14:47:26.412Z,9.00
2018-08-25T14:49:55.854Z,8.67
2018-08-25T14:52:26.074Z,8.20
2018-08-25T14:54:55.256Z,8.20
2018-08-25T14:57:24.697Z,8.78
2018-08-25T14:59:53.977Z,9.40
2018-08-25T15:02:23.581Z,8.80
2018-08-25T15:04:52.955Z,9.43
2018-08-25T15:07:22.280Z,9.98
2018-08-25T15:09:51.759Z,9.50
2018-08-25T15:12:20.959Z,10.30
2018-08-25T15:14:50.203Z,9.80
2018-08-25T15:17:19.542Z,9.80
2018-08-25T15:19:48.712Z,9.83
2018-08-25T15:22:17.899Z,9.53
2018-08-25T15:24:47.995Z,10.93
2018-08-25T15:27:17.354Z,9.85
2018-08-25T15:29:46.684Z,9.47
2018-08-25T15:32:15.852Z,10.70
2018-08-25T15:34:45.320Z,10.50
2018-08-25T15:37:14.592Z,10.90
2018-08-25T15:39:43.817Z,9.93
2018-08-25T15:42:13.128Z,10.07
2018-08-25T15:44:42.414Z,10.73
2018-08-25T15:47:12.814Z,10.90
2018-08-25T15:49:42.121Z,11.93
2018-08-25T15:52:11.557Z,12.20
2018-08-25T15:54:41.070Z,12.77
2018-08-25T15:57:11.716Z,12.03
2018-08-25T15:59:41.007Z,12.23
2018-08-25T16:02:10.893Z,12.00
2018-08-25T16:04:40.185Z,12.40
2018-08-25T16:07:09.470Z,12.10
2018-08-25T16:09:38.746Z,12.57
2018-08-25T16:12:11.262Z,13.47
2018-08-25T16:14:40.407Z,13.53
2018-08-25T16:17:09.752Z,14.05
2018-08-25T16:19:39.003Z,15.90
2018-08-25T16:22:08.129Z,15.50
2018-08-25T16:24:38.235Z,13.03
2018-08-25T16:27:07.756Z,14.00
2018-08-25T16:29:37.822Z,14.23
2018-08-25T16:32:06.993Z,11.57
2018-08-25T16:34:36.143Z,11.00
2018-08-25T16:37:05.355Z,10.93
2018-08-25T16:39:34.626Z,12.33
2018-08-25T16:42:03.773Z,11.47
2018-08-25T16:44:32.969Z,11.30
2018-08-25T16:47:02.195Z,10.65
2018-08-25T16:49:31.476Z,11.20
2018-08-25T16:52:00.822Z,11.70
2018-08-25T16:54:30.148Z,11.77
2018-08-25T16:56:59.385Z,11.77
2018-08-25T16:59:29.154Z,11.90
2018-08-25T17:01:58.425Z,12.07
2018-08-25T17:04:28.432Z,11.57
2018-08-25T17:06:57.636Z,12.17
2018-08-25T17:09:26.812Z,12.15
2018-08-25T17:11:55.999Z,11.65
2018-08-25T17:14:25.157Z,13.57
2018-08-25T17:16:54.292Z,12.70
2018-08-25T17:19:23.734Z,12.30
2018-08-25T17:21:53.003Z,14.27
2018-08-25T17:24:22.125Z,14.00
2018-08-25T17:26:57.464Z,14.83
2018-08-25T17:29:26.597Z,13.03
2018-08-25T17:31:55.791Z,13.80
2018-08-25T17:34:25.846Z,14.80
2018-08-25T17:36:55.048Z,14.73
2018-08-25T17:39:24.196Z,14.23
2018-08-25T17:41:53.393Z,14.70
2018-08-25T17:44:22.542Z,13.47
2018-08-25T17:46:51.810Z,14.57
2018-08-25T17:49:21.913Z,15.15
2018-08-25T17:51:51.685Z,14.37
2018-08-25T17:54:20.865Z,13.23
2018-08-25T17:56:52.099Z,13.20
2018-08-25T17:59:22.154Z,15.37
2018-08-25T18:01:52.381Z,14.97
2018-08-25T18:04:21.598Z,15.17
2018-08-25T18:06:51.374Z,14.53
2018-08-25T18:09:21.092Z,14.85
2018-08-25T18:11:50.253Z,14.87
2018-08-25T18:14:19.581Z,12.83
2018-08-25T18:16:49.701Z,14.33
2018-08-25T18:19:19.304Z,14.17
2018-08-25T18:21:48.474Z,14.67
2018-08-25T18:24:17.922Z,13.23
2018-08-25T18:26:47.117Z,12.90
2018-08-25T18:29:16.295Z,14.97
2018-08-25T18:31:45.482Z,14.80
2018-08-25T18:34:14.824Z,14.90
2018-08-25T18:36:44.014Z,14.87
2018-08-25T18:39:14.305Z,15.28
2018-08-25T18:41:44.737Z,13.80
2018-08-25T18:44:14.514Z,15.20
2018-08-25T18:46:43.785Z,14.80
2018-08-25T18:49:14.209Z,15.20
2018-08-25T18:51:43.422Z,13.80
2018-08-25T18:54:19.246Z,14.67
2018-08-25T18:56:48.607Z,13.70
2018-08-25T18:59:17.924Z,15.33
2018-08-25T19:01:47.446Z,14.80
2018-08-25T19:04:16.896Z,14.97
2018-08-25T19:06:46.166Z,16.17
2018-08-25T19:09:15.595Z,14.18
2018-08-25T19:11:44.740Z,14.45
2018-08-25T19:14:14.093Z,13.80
2018-08-25T19:16:43.492Z,14.23
2018-08-25T19:19:12.755Z,13.90
2018-08-25T19:21:42.250Z,12.73
2018-08-25T19:24:11.521Z,11.97
2018-08-25T19:26:40.689Z,15.17
2018-08-25T19:29:09.881Z,14.43
2018-08-25T19:31:39.109Z,13.93
2018-08-25T19:34:08.286Z,13.50
2018-08-25T19:36:37.440Z,15.70
2018-08-25T19:39:09.189Z,13.75
2018-08-25T19:41:38.396Z,12.63
2018-08-25T19:44:07.522Z,14.60
2018-08-25T19:46:36.770Z,13.37
2018-08-25T19:49:06.262Z,12.23
2018-08-25T19:51:35.425Z,11.13
2018-08-25T19:54:04.829Z,12.13
2018-08-25T19:56:33.965Z,11.57
2018-08-25T19:59:03.334Z,11.90
2018-08-25T20:01:32.510Z,10.57
2018-08-25T20:04:01.671Z,12.20
2018-08-25T20:06:30.862Z,8.87
2018-08-25T20:09:00.017Z,9.87
2018-08-25T20:11:29.190Z,9.00
2018-08-25T20:13:58.354Z,9.00
2018-08-25T20:16:27.505Z,8.87
2018-08-25T20:18:56.674Z,8.77
2018-08-25T20:21:25.865Z,8.20
2018-08-25T20:23:55.015Z,9.10
2018-08-25T20:26:24.278Z,7.53
2018-08-25T20:28:53.545Z,7.80
2018-08-25T20:31:22.886Z,8.87
2018-08-25T20:33:52.211Z,9.27
2018-08-25T20:36:21.524Z,8.97
2018-08-25T20:38:51.037Z,10.17
2018-08-25T20:41:20.190Z,9.10
2018-08-25T20:43:49.325Z,9.60
2018-08-25T20:46:18.514Z,9.73
2018-08-25T20:48:47.687Z,8.67
2018-08-25T20:51:17.526Z,9.47
2018-08-25T20:53:47.845Z,9.07
2018-08-25T20:56:16.985Z,8.73
2018-08-25T20:58:46.102Z,9.23
2018-08-25T21:01:15.260Z,8.93
2018-08-25T21:03:44.420Z,8.17
2018-08-25T21:06:13.601Z,9.50
2018-08-25T21:08:42.745Z,9.37
2018-08-25T21:11:11.947Z,10.23
2018-08-25T21:13:41.125Z,9.33
2018-08-25T21:16:10.278Z,9.00
2018-08-25T21:18:39.637Z,8.67
2018-08-25T21:21:08.969Z,9.57
2018-08-25T21:23:38.155Z,10.00
2018-08-25T21:26:07.730Z,10.57
2018-08-25T21:28:36.869Z,10.20
2018-08-25T21:31:06.384Z,10.50
2018-08-25T21:33:35.547Z,9.27
2018-08-25T21:36:04.681Z,9.83
2018-08-25T21:38:33.854Z,9.50
2018-08-25T21:41:03.035Z,9.40
2018-08-25T21:43:32.152Z,9.13
2018-08-25T21:46:01.316Z,8.77
2018-08-25T21:48:30.461Z,9.53
2018-08-25T21:50:59.724Z,8.67
2018-08-25T21:53:28.942Z,9.48
2018-08-25T21:55:58.070Z,9.28
2018-08-25T21:58:27.293Z,8.63
2018-08-25T22:00:57.498Z,9.57
2018-08-25T22:03:27.856Z,9.27
2018-08-25T22:05:57.655Z,9.77
2018-08-25T22:08:26.820Z,9.00
2018-08-25T22:10:55.973Z,9.43
2018-08-25T22:13:25.112Z,9.40
2018-08-25T22:15:54.393Z,9.20
2018-08-25T22:18:23.517Z,9.30
2018-08-25T22:20:53.023Z,10.30
2018-08-25T22:23:22.374Z,9.93
2018-08-25T22:25:51.732Z,9.50
2018-08-25T22:28:21.105Z,8.23
2018-08-25T22:30:50.724Z,9.83
2018-08-25T22:33:19.880Z,11.63
2018-08-25T22:35:49.210Z,10.40
2018-08-25T22:38:26.070Z,11.10
2018-08-25T22:40:59.537Z,10.97
2018-08-25T22:43:28.744Z,11.90
2018-08-25T22:45:57.932Z,11.93
2018-08-25T22:48:27.129Z,13.27
2018-08-25T22:50:56.351Z,12.20
2018-08-25T22:53:25.616Z,10.68
2018-08-25T22:55:54.868Z,12.23
2018-08-25T22:58:24.051Z,12.37
2018-08-25T23:00:53.641Z,12.73
2018-08-25T23:03:22.967Z,11.40
2018-08-25T23:05:52.293Z,12.20
2018-08-25T23:08:21.494Z,10.20
2018-08-25T23:10:50.922Z,10.00
2018-08-25T23:13:20.233Z,9.65
2018-08-25T23:15:49.452Z,11.30
2018-08-25T23:18:18.720Z,10.57
2018-08-25T23:20:48.122Z,11.50
2018-08-25T23:23:17.540Z,10.20
2018-08-25T23:25:46.821Z,10.83
2018-08-25T23:28:16.137Z,9.50
2018-08-25T23:30:45.354Z,11.50
2018-08-25T23:33:18.376Z,10.00
2018-08-25T23:35:47.590Z,10.57
2018-08-25T23:38:17.013Z,9.50
2018-08-25T23:40:46.294Z,9.30
2018-08-25T23:43:15.748Z,10.15
2018-08-25T23:45:45.243Z,9.60
2018-08-25T23:48:14.634Z,9.00
2018-08-25T23:50:43.930Z,9.30
2018-08-25T23:53:13.473Z,9.60
2018-08-25T23:55:42.848Z,10.00
2018-08-25T23:58:12.095Z,10.73
